Unlu-5 — TCON5 — position and weather

sailwx.info

Track history (hours):
 
Tides and Currents Weather Stations Pressure Air Temp Water Temp Dewpoint Dewpoint Depression Visibility Wind Speed Wind Dir Waves Ship Positions

Unlu-5

Last reported at 2015-Mar-26 16:33 UTC. Time now 2015-Mar-29 12:32 UTC.
Position N 34°28' E 032°06'.

Length 99 m; draft 4.1 m.

Type: Cargo ship. MMSI: 271000854.

Date/timePositionNaut miles runAvg speedWind from/ knotsBaromVisibWave heightAir tempDewpointWater temp
2015-Mar-26 16:33N 34°28' E 032°06'19 9.2
2015-Mar-26 14:31N 34°16' E 032°23'18 9.3
2015-Mar-26 12:33N 34°04' E 032°40'114 8.6
2015-Mar-25 23:12N 32°59' E 034°33'6 8.4
2015-Mar-25 22:32N 32°57' E 034°39'8 8.5
2015-Mar-25 21:33N 32°55' E 034°48'  
2015-Mar-19 15:11N 36°09' E 026°24'5 8.0
2015-Mar-19 14:33N 36°09' E 026°18'8 7.6
2015-Mar-19 13:33N 36°09' E 026°08'8 7.6
2015-Mar-19 12:33N 36°09' E 025°59'7 7.5
2015-Mar-19 11:33N 36°09' E 025°49'8 7.5
2015-Mar-19 10:33N 36°10' E 025°40'8 7.5
2015-Mar-19 09:33N 36°10' E 025°31'8 7.8
2015-Mar-19 08:33N 36°11' E 025°21'8 7.7
2015-Mar-19 07:33N 36°11' E 025°12'7 7.5
2015-Mar-19 06:33N 36°11' E 025°02'8 8.3
2015-Mar-19 05:33N 36°12' E 024°52'  
Track history (hours):
 
Tides and Currents Weather Stations Pressure Air Temp Water Temp Dewpoint Dewpoint Depression Visibility Wind Speed Wind Dir Waves Ship Positions

Unlu-5

Last reported at 2015-Mar-26 16:33 UTC. Time now 2015-Mar-29 12:32 UTC.
Position N 34°28' E 032°06'.

Length 99 m; draft 4.1 m.

Type: Cargo ship. MMSI: 271000854.

Date/timePositionNaut miles runAvg speedWind from/ knotsBaromVisibWave heightAir tempDewpointWater temp
2015-Mar-26 16:33N 34°28' E 032°06'19 9.2
2015-Mar-26 14:31N 34°16' E 032°23'18 9.3
2015-Mar-26 12:33N 34°04' E 032°40'114 8.6
2015-Mar-25 23:12N 32°59' E 034°33'6 8.4
2015-Mar-25 22:32N 32°57' E 034°39'8 8.5
2015-Mar-25 21:33N 32°55' E 034°48'  
2015-Mar-19 15:11N 36°09' E 026°24'5 8.0
2015-Mar-19 14:33N 36°09' E 026°18'8 7.6
2015-Mar-19 13:33N 36°09' E 026°08'8 7.6
2015-Mar-19 12:33N 36°09' E 025°59'7 7.5
2015-Mar-19 11:33N 36°09' E 025°49'8 7.5
2015-Mar-19 10:33N 36°10' E 025°40'8 7.5
2015-Mar-19 09:33N 36°10' E 025°31'8 7.8
2015-Mar-19 08:33N 36°11' E 025°21'8 7.7
2015-Mar-19 07:33N 36°11' E 025°12'7 7.5
2015-Mar-19 06:33N 36°11' E 025°02'8 8.3
2015-Mar-19 05:33N 36°12' E 024°52'  

Dump ship's entire track history